createdAt,value
2023-02-06T00:04:03.301Z,3.33
2023-02-06T00:09:07.690Z,3.35
2023-02-06T00:14:12.171Z,3.38
2023-02-06T00:19:15.292Z,3.31
2023-02-06T00:24:18.345Z,3.37
2023-02-06T00:29:22.801Z,3.38
2023-02-06T00:34:26.269Z,3.37
2023-02-06T00:39:29.278Z,3.37
2023-02-06T00:44:33.723Z,3.42
2023-02-06T00:49:37.028Z,3.40
2023-02-06T00:54:40.016Z,3.35
2023-02-06T00:59:44.622Z,3.33
2023-02-06T01:04:47.665Z,3.36
2023-02-06T01:09:50.786Z,3.36
2023-02-06T01:14:55.422Z,3.39
2023-02-06T01:19:58.381Z,3.40
2023-02-06T01:25:01.391Z,3.43
2023-02-06T01:30:07.132Z,3.48
2023-02-06T01:35:11.758Z,3.54
2023-02-06T01:40:17.539Z,3.55
2023-02-06T01:45:47.524Z,3.53
2023-02-06T01:50:53.679Z,3.47
2023-02-06T01:55:59.533Z,3.50
2023-02-06T02:01:05.365Z,3.50
2023-02-06T02:06:11.839Z,3.51
2023-02-06T02:11:18.400Z,3.49
2023-02-06T02:16:28.988Z,3.48
2023-02-06T02:22:04.315Z,3.44
2023-02-06T02:27:34.962Z,3.40
2023-02-06T02:33:05.056Z,3.35
2023-02-06T02:38:19.961Z,3.30
2023-02-06T02:43:34.055Z,3.21
2023-02-06T02:48:41.173Z,3.12
2023-02-06T02:53:46.115Z,3.09
2023-02-06T02:58:54.561Z,2.97
2023-02-06T03:04:01.404Z,2.88
2023-02-06T03:09:12.753Z,2.81
2023-02-06T03:14:24.636Z,2.75
2023-02-06T03:19:33.503Z,2.64
2023-02-06T03:24:40.661Z,2.60
2023-02-06T03:29:46.356Z,2.49
2023-02-06T03:34:55.170Z,2.41
2023-02-06T03:40:02.170Z,2.31
2023-02-06T03:45:10.911Z,2.25
2023-02-06T03:50:16.282Z,2.23
2023-02-06T03:55:23.912Z,2.16
2023-02-06T04:00:27.843Z,2.04
2023-02-06T04:05:31.145Z,2.04
2023-02-06T04:10:35.678Z,2.01
2023-02-06T04:15:38.625Z,1.94
2023-02-06T04:20:42.136Z,1.94
2023-02-06T04:25:46.632Z,1.91
2023-02-06T04:30:49.896Z,1.88
2023-02-06T04:35:53.184Z,1.85
2023-02-06T04:41:03.396Z,1.83
2023-02-06T04:46:06.523Z,1.85
2023-02-06T04:51:09.868Z,1.81
2023-02-06T04:56:14.636Z,1.81
2023-02-06T05:01:18.523Z,1.80
2023-02-06T05:06:21.516Z,1.81
2023-02-06T05:11:26.035Z,1.79
2023-02-06T05:16:29.067Z,1.81
2023-02-06T05:21:32.064Z,1.74
2023-02-06T05:26:36.579Z,1.61
2023-02-06T05:31:39.672Z,1.64
2023-02-06T05:36:42.615Z,1.56
2023-02-06T05:41:46.972Z,1.67
2023-02-06T05:46:49.886Z,1.56
2023-02-06T05:51:52.953Z,1.54
2023-02-06T05:56:58.426Z,1.42
2023-02-06T06:02:01.429Z,1.46
2023-02-06T06:07:04.986Z,1.48
2023-02-06T06:12:09.540Z,1.50
2023-02-06T06:17:12.615Z,1.55
2023-02-06T06:22:16.174Z,1.55
2023-02-06T06:27:20.626Z,1.62
2023-02-06T06:32:23.746Z,1.68
2023-02-06T06:37:26.763Z,1.75
2023-02-06T06:42:31.221Z,1.70
2023-02-06T06:47:34.176Z,1.71
2023-02-06T06:52:37.292Z,1.79
2023-02-06T06:57:41.845Z,1.81
2023-02-06T07:02:45.139Z,1.89
2023-02-06T07:07:48.243Z,1.82
2023-02-06T07:12:53.914Z,1.84
2023-02-06T07:17:57.173Z,1.85
2023-02-06T07:23:01.900Z,1.88
2023-02-06T07:28:06.741Z,1.91
2023-02-06T07:33:09.802Z,2.00
2023-02-06T07:38:12.966Z,2.03
2023-02-06T07:43:17.498Z,2.15
2023-02-06T07:48:20.519Z,2.20
2023-02-06T07:53:23.582Z,2.31
2023-02-06T07:58:28.553Z,2.39
2023-02-06T08:03:31.537Z,2.47
2023-02-06T08:08:34.554Z,2.57
2023-02-06T08:13:39.165Z,2.71
2023-02-06T08:18:42.646Z,2.72
2023-02-06T08:23:46.156Z,2.94
2023-02-06T08:28:51.954Z,3.05
2023-02-06T08:33:55.947Z,3.18
2023-02-06T08:38:59.250Z,3.35
2023-02-06T08:44:05.481Z,3.50
2023-02-06T08:49:12.790Z,3.72
2023-02-06T08:54:20.774Z,3.95
2023-02-06T08:59:25.637Z,3.93
2023-02-06T09:04:31.803Z,4.13
2023-02-06T09:09:35.092Z,4.33
2023-02-06T09:14:39.817Z,4.32
2023-02-06T09:19:43.070Z,4.28
2023-02-06T09:24:46.261Z,4.42
2023-02-06T09:29:50.677Z,4.51
2023-02-06T09:34:53.665Z,4.54
2023-02-06T09:39:56.899Z,4.39
2023-02-06T09:45:07.489Z,4.59
2023-02-06T09:50:27.080Z,5.03
2023-02-06T09:55:38.005Z,5.32
2023-02-06T10:00:49.504Z,5.43
2023-02-06T10:06:02.986Z,5.63
2023-02-06T10:11:14.067Z,5.80
2023-02-06T10:16:31.757Z,5.89
2023-02-06T10:21:41.413Z,5.94
2023-02-06T10:26:44.491Z,5.93
2023-02-06T10:32:02.687Z,5.90
2023-02-06T10:37:28.047Z,5.94
2023-02-06T10:42:44.320Z,6.17
2023-02-06T10:47:54.368Z,6.59
2023-02-06T10:52:59.463Z,6.94
2023-02-06T10:58:11.591Z,6.87
2023-02-06T11:03:20.586Z,6.73
2023-02-06T11:08:29.533Z,6.87
2023-02-06T11:13:36.401Z,7.02
2023-02-06T11:18:43.392Z,7.24
2023-02-06T11:23:47.548Z,7.60
2023-02-06T11:28:53.512Z,7.91
2023-02-06T11:33:58.395Z,7.83
2023-02-06T11:39:03.625Z,7.71
2023-02-06T11:44:07.432Z,7.59
2023-02-06T11:49:25.785Z,7.71
2023-02-06T11:54:31.212Z,7.63
2023-02-06T11:59:36.417Z,7.87
2023-02-06T12:04:42.072Z,7.95
2023-02-06T12:09:45.102Z,7.93
2023-02-06T12:14:52.979Z,7.97
2023-02-06T12:20:04.319Z,8.11
2023-02-06T12:25:22.946Z,8.34
2023-02-06T12:30:33.333Z,8.40
2023-02-06T12:35:46.648Z,8.29
2023-02-06T12:40:59.525Z,8.26
2023-02-06T12:46:07.567Z,8.49
2023-02-06T12:51:19.680Z,8.57
2023-02-06T12:56:29.143Z,8.37
2023-02-06T13:01:54.665Z,8.34
2023-02-06T13:07:06.556Z,8.31
2023-02-06T13:12:15.159Z,8.62
2023-02-06T13:17:21.446Z,8.99
2023-02-06T13:22:49.415Z,8.93
2023-02-06T13:27:53.177Z,8.88
2023-02-06T13:32:57.838Z,8.55
2023-02-06T13:38:37.042Z,8.48
2023-02-06T13:43:41.713Z,8.60
2023-02-06T13:49:12.782Z,9.22
2023-02-06T13:54:49.163Z,9.56
2023-02-06T13:59:55.006Z,9.91
2023-02-06T14:04:59.261Z,10.25
2023-02-06T14:10:40.643Z,10.50
2023-02-06T14:15:52.785Z,10.52
2023-02-06T14:21:05.013Z,10.01
2023-02-06T14:26:24.735Z,9.45
2023-02-06T14:31:46.230Z,9.51
2023-02-06T14:37:06.386Z,9.91
2023-02-06T14:42:16.646Z,10.12
2023-02-06T14:47:24.171Z,9.86
2023-02-06T14:52:30.956Z,9.53
2023-02-06T14:57:35.551Z,9.50
2023-02-06T15:02:38.887Z,9.75
2023-02-06T15:07:41.910Z,9.81
2023-02-06T15:12:52.620Z,9.71
2023-02-06T15:18:00.822Z,9.74
2023-02-06T15:23:17.677Z,9.48
2023-02-06T15:28:28.555Z,9.36
2023-02-06T15:33:34.710Z,9.60
2023-02-06T15:38:39.957Z,9.78
2023-02-06T15:43:46.892Z,9.72
2023-02-06T15:48:53.966Z,9.68
2023-02-06T15:54:08.714Z,9.39
2023-02-06T15:59:20.705Z,9.19
2023-02-06T16:04:26.959Z,8.96
2023-02-06T16:09:30.513Z,8.75
2023-02-06T16:14:37.701Z,8.69
2023-02-06T16:19:49.691Z,8.70
2023-02-06T16:24:55.992Z,8.62
2023-02-06T16:30:00.528Z,8.52
2023-02-06T16:35:07.152Z,8.35
2023-02-06T16:40:10.943Z,8.27
2023-02-06T16:45:24.167Z,8.20
2023-02-06T16:50:27.306Z,8.10
2023-02-06T16:55:30.515Z,8.04
2023-02-06T17:00:35.381Z,7.99
2023-02-06T17:05:39.606Z,7.79
2023-02-06T17:10:42.757Z,7.77
2023-02-06T17:15:48.315Z,7.79
2023-02-06T17:20:53.819Z,7.75
2023-02-06T17:25:56.955Z,7.61
2023-02-06T17:31:01.420Z,7.50
2023-02-06T17:36:07.801Z,7.40
2023-02-06T17:41:11.033Z,7.33
2023-02-06T17:46:15.592Z,7.24
2023-02-06T17:51:18.767Z,7.15
2023-02-06T17:56:22.789Z,7.03
2023-02-06T18:01:30.748Z,6.94
2023-02-06T18:06:36.432Z,6.74
2023-02-06T18:11:39.610Z,6.55
2023-02-06T18:16:45.587Z,6.35
2023-02-06T18:21:48.664Z,6.19
2023-02-06T18:26:52.054Z,5.99
2023-02-06T18:31:56.968Z,5.78
2023-02-06T18:37:00.115Z,5.67
2023-02-06T18:42:20.776Z,5.52
2023-02-06T18:47:25.411Z,5.35
2023-02-06T18:52:29.109Z,5.18
2023-02-06T18:57:32.559Z,5.04
2023-02-06T19:02:37.147Z,4.87
2023-02-06T19:07:40.426Z,4.76
2023-02-06T19:12:44.587Z,4.59
2023-02-06T19:17:50.313Z,4.50
2023-02-06T19:22:53.744Z,4.35
2023-02-06T19:27:56.937Z,4.27
2023-02-06T19:33:01.505Z,4.16
2023-02-06T19:38:04.971Z,4.04
2023-02-06T19:43:07.982Z,3.91
2023-02-06T19:48:13.875Z,3.81
2023-02-06T19:53:17.078Z,3.71
2023-02-06T19:58:20.264Z,3.59
2023-02-06T20:03:25.133Z,3.49
2023-02-06T20:08:28.341Z,3.47
2023-02-06T20:13:31.533Z,3.33
2023-02-06T20:18:37.299Z,3.29
2023-02-06T20:23:40.847Z,3.22
2023-02-06T20:28:44.082Z,3.16
2023-02-06T20:33:48.975Z,3.09
2023-02-06T20:38:54.798Z,2.96
2023-02-06T20:43:58.990Z,2.86
2023-02-06T20:49:05.484Z,2.74
2023-02-06T20:54:08.691Z,2.61
2023-02-06T20:59:14.386Z,2.51
2023-02-06T21:04:19.901Z,2.43
2023-02-06T21:09:23.040Z,2.36
2023-02-06T21:14:28.196Z,2.29
2023-02-06T21:19:32.663Z,2.26
2023-02-06T21:24:35.737Z,2.20
2023-02-06T21:29:38.785Z,2.18
2023-02-06T21:34:43.961Z,2.14
2023-02-06T21:39:47.020Z,2.07
2023-02-06T21:44:50.551Z,2.00
2023-02-06T21:49:55.000Z,1.89
2023-02-06T21:54:58.090Z,1.75
2023-02-06T22:00:01.271Z,1.73
2023-02-06T22:05:07.391Z,1.71
2023-02-06T22:10:11.238Z,1.69
2023-02-06T22:15:14.226Z,1.66
2023-02-06T22:20:18.609Z,1.64
2023-02-06T22:25:21.684Z,1.63
2023-02-06T22:30:24.798Z,1.60
2023-02-06T22:35:29.252Z,1.55
2023-02-06T22:40:32.460Z,1.58
2023-02-06T22:45:36.973Z,1.56
2023-02-06T22:50:41.642Z,1.46
2023-02-06T22:56:01.979Z,1.42
2023-02-06T23:01:05.256Z,1.45
2023-02-06T23:06:11.595Z,1.38
2023-02-06T23:11:15.530Z,1.29
2023-02-06T23:16:18.502Z,1.21
2023-02-06T23:21:25.031Z,1.11
2023-02-06T23:26:29.059Z,1.05
2023-02-06T23:31:32.100Z,1.13
2023-02-06T23:36:36.465Z,1.06
2023-02-06T23:41:39.925Z,1.03
2023-02-06T23:46:43.181Z,0.94
2023-02-06T23:51:47.645Z,0.90
2023-02-06T23:56:50.738Z,0.85
